Flight Track Log - Related Links

Times and Time Zones

All times are in EDT time to prevent confusion due to time zone crossing. See the ASQ5433 flight status page for this flight to view local times or setup timezone preferences in your user account.

Time Position Orientation Groundspeed Altitude Reporting Facility
EDT Latitude Longitude Course Direction KTS MPH feet Rate Location/Type
Wed 07:34:42 PM 35.0483 -85.0689 50° Northeast 291 335 6,800  Level Atlanta Center
Wed 07:35:42 PM 35.0992 -84.9983 49° Northeast 295 339 9,300 1,800 Climbing Atlanta Center
Wed 07:36:42 PM 35.1622 -84.9153 47° Northeast 295 339 10,400 1,500 Climbing Atlanta Center
Wed 07:37:42 PM 35.2275 -84.8244 49° Northeast 319 367 12,300 1,650 Climbing Atlanta Center
Wed 07:38:00 PM 35.3744 -84.6650 54° Northeast  Level FlightAware Approximate
Wed 07:38:42 PM 35.2969 -84.7308 48° Northeast 350 403 13,700  Level Atlanta Center
Wed 07:39:00 PM 35.4336 -84.5769 50° Northeast  Level FlightAware Approximate
Wed 07:39:42 PM 35.3683 -84.6322 48° Northeast 369 425 15,200  Level Atlanta Center
Wed 07:40:00 PM 35.4935 -84.4894 50° Northeast  Level FlightAware Approximate
Wed 07:40:42 PM 35.4439 -84.5308 48° Northeast 385 443 16,600  Level Atlanta Center
Wed 07:41:42 PM 35.5194 -84.4292 48° Northeast 391 450 17,900 1,200 Climbing Atlanta Center
Wed 07:42:42 PM 35.5928 -84.3247 49° Northeast 391 450 19,000 1,050 Climbing Atlanta Center
Wed 07:43:42 PM 35.6722 -84.2178 48° Northeast 398 458 20,000 1,000 Climbing Atlanta Center
Wed 07:44:42 PM 35.7703 -84.1361 34° Northeast 408 470 21,000 500 Climbing Atlanta Center
Wed 07:45:42 PM 35.8811 -84.0644 28° Northeast 427 491 21,000 250 Level Atlanta Center
Wed 07:46:42 PM 35.9914 -83.9900 29° Northeast 442 509 21,500 750 Climbing Atlanta Center
Wed 07:47:42 PM 36.1019 -83.9153 29° Northeast 448 516 22,500 1,024 Climbing Atlanta Center
Wed 07:48:45 PM 36.2242 -83.8300 29° Northeast 443 510 23,600 912 Climbing Indianapolis Center
Wed 07:49:47 PM 36.3292 -83.7558 30° Northeast 438 504 24,400 683 Climbing Indianapolis Center
Wed 07:50:48 PM 36.4364 -83.6825 29° Northeast 440 506 25,000 537 Climbing Indianapolis Center
Wed 07:51:50 PM 36.5531 -83.6036 29° Northeast 446 513 25,500 484 Climbing Indianapolis Center
Wed 07:52:52 PM 36.6633 -83.5275 29° Northeast 448 516 26,000 532 Climbing Indianapolis Center
Wed 07:53:54 PM 36.7750 -83.4500 29° Northeast 452 520 26,600 585 Climbing Indianapolis Center
Wed 07:54:55 PM 36.8847 -83.3733 29° Northeast 448 516 27,200 585 Climbing Indianapolis Center
Wed 07:55:57 PM 36.9969 -83.2958 29° Northeast 454 522 27,800 581 Climbing Indianapolis Center
Wed 07:56:59 PM 37.1083 -83.2164 30° Northeast 455 524 28,400 634 Climbing Indianapolis Center
Wed 07:58:00 PM 37.2378 -83.1250 29° Northeast 451 519 29,100 634 Climbing Indianapolis Center
Wed 07:59:02 PM 37.3489 -83.0472 29° Northeast 451 519 29,700 581 Climbing Indianapolis Center
Wed 08:00:04 PM 37.4658 -82.9894 21° North 451 519 30,300 532 Climbing Indianapolis Center
Wed 08:01:06 PM 37.5869 -82.9450 16° North 451 519 30,800 341 Climbing Indianapolis Center
Wed 08:02:07 PM 37.7103 -82.9003 16° North 456 525 31,000 98 Climbing Indianapolis Center
Wed 08:03:09 PM 37.8356 -82.8556 16° North 465 535 31,000  Level Indianapolis Center
Wed 08:04:11 PM 37.9617 -82.8114 15° North 471 542 31,000  Level Indianapolis Center
Wed 08:05:13 PM 38.0911 -82.7653 16° North 480 552 31,000  Level Indianapolis Center
Wed 08:06:14 PM 38.2431 -82.7111 16° North 484 557 31,000  Level Indianapolis Center
Wed 08:07:16 PM 38.3739 -82.6642 16° North 485 558 31,000  Level Indianapolis Center
Wed 08:08:18 PM 38.5058 -82.6172 16° North 490 564 31,000  Level Indianapolis Center
Wed 08:09:20 PM 38.6458 -82.5658 16° North 491 565 31,000  Level Indianapolis Center
Wed 08:10:21 PM 38.7783 -82.5181 16° North 490 564 31,000  Level Indianapolis Center
Wed 08:11:23 PM 38.9119 -82.4694 16° North 494 568 31,000  Level Indianapolis Center
Wed 08:12:25 PM 39.0453 -82.4208 16° North 495 570 31,000  Level Indianapolis Center
Wed 08:13:26 PM 39.1781 -82.3719 16° North 493 567 31,000  Level Indianapolis Center
Wed 08:14:28 PM 39.3128 -82.3206 16° North 499 574 31,000  Level Indianapolis Center
Wed 08:15:30 PM 39.4450 -82.2714 16° North 492 566 31,000  Level Indianapolis Center
Wed 08:16:31 PM 39.5778 -82.2225 16° North 493 567 31,000  Level Indianapolis Center
Wed 08:17:33 PM 39.7350 -82.1819 11° North 492 566 31,000  Level Indianapolis Center
Wed 08:18:35 PM 39.8703 -82.2036 353° North 486 559 31,000 -242 Level Indianapolis Center
Wed 08:19:37 PM 40.0069 -82.2267 353° North 491 565 30,500 -488 Descending Indianapolis Center
Wed 08:20:38 PM 40.1469 -82.2497 353° North 502 578 30,000 -244 Descending Indianapolis Center
Wed 08:21:40 PM 40.2986 -82.2750 353° North 502 578 30,000  Level Indianapolis Center
Wed 08:22:42 PM 40.4375 -82.2969 353° North 498 573 30,000  Level Indianapolis Center
Wed 08:23:43 PM 40.5761 -82.3303 350° North 499 574 30,000  Level Indianapolis Center
Wed 08:24:45 PM 40.7108 -82.3678 348° North 492 566 30,000  Level Indianapolis Center
Wed 08:25:47 PM 40.8472 -82.4081 347° North 493 567 30,000  Level Indianapolis Center
Wed 08:26:44 PM 40.9836 -82.4508 347° North 493 567 30,000 -872 Level Cleveland Center
Wed 08:27:44 PM 41.1164 -82.4931 347° North 488 562 28,300 -2,250 Descending Cleveland Center
Wed 08:28:44 PM 41.2408 -82.5300 347° North 493 567 25,500 -3,000 Descending Cleveland Center
Wed 08:29:44 PM 41.3392 -82.6297 323° Northwest 463 533 22,300 -3,045 Descending Cleveland Center
Wed 08:30:58 PM 41.4536 -82.7581 320° Northwest 399 459 18,700 -2,550 Descending Cleveland Center
Wed 08:31:44 PM 41.5106 -82.8264 318° Northwest 407 468 17,200 -2,208 Descending Cleveland Center
Wed 08:32:44 PM 41.6064 -82.9381 319° Northwest 407 468 14,800 -2,300 Descending Cleveland Center
Wed 08:33:44 PM 41.6856 -83.0328 318° Northwest 412 474 12,600 -1,450 Descending Cleveland Center
Wed 08:34:44 PM 41.7778 -83.1142 327° Northwest 406 467 11,900 -400 Descending Cleveland Center
Wed 08:35:44 PM 41.8742 -83.1878 330° Northwest 401 461 11,800 -350 Descending Cleveland Center
Wed 08:36:44 PM 41.9872 -83.2511 337° Northwest 401 461 11,200 -450 Descending Cleveland Center
Wed 08:37:44 PM 42.0886 -83.2833 347° North 389 448 10,900 -350 Descending Cleveland Center
Wed 08:38:44 PM 42.1728 -83.2533 15° North 326 375 10,500 -650 Descending Cleveland Center
Wed 08:39:44 PM 42.2322 -83.2025 32° Northeast 274 315 9,600 -1,100 Descending Cleveland Center
Wed 08:40:44 PM 42.2858 -83.1400 41° Northeast 256 295 8,300 -1,209 Descending Cleveland Center
Wed 08:42:03 PM 42.3603 -83.0756 33° Northeast 241 277 6,800 -1,165 Descending Cleveland Center
Wed 08:43:03 PM 42.4050 -83.1225 322° Northwest 203 234 5,600 -992 Descending Cleveland Center
Wed 08:44:04 PM 42.3975 -83.1783 260° West 167 192 4,800 -851 Descending Cleveland Center
Wed 08:45:17 PM 42.3589 -83.2303 225° Southwest 163 188 3,700 -904 Descending Cleveland Center

Login

Don't have an account? Register now (free) for customized features, flight alerts, and more!